Time;durP1;ratioP1;P1;durP2;ratioP2;P2;SDS_P1;SDS_P2;PMS_P1;PMS_P2;Temp;Humidity;BMP_temperature;BMP_pressure;BME280_temperature;BME280_humidity;BME280_pressure;Samples;Min_cycle;Max_cycle;Signal;HPM_P1;HPM_P2
2021/12/01 19:04:08;;;;;;;9.27;3.37;;;;;;;;;;5102545;27;20437;-54
2021/12/01 19:06:34;;;;;;;8.47;3.07;;;;;;;;;;5103707;28;20149;-56
2021/12/01 19:09:00;;;;;;;7.97;2.70;;;;;;;;;;5104343;28;20105;-64
2021/12/01 19:11:26;;;;;;;9.70;3.10;;;;;;;;;;5105496;28;20063;-58
2021/12/01 19:15:44;;;;;;;6.73;1.43;;;;;;;;;;5135943;27;20361;-62
2021/12/01 19:18:12;;;;;;;6.20;1.50;;;;;;;;;;5096578;28;20499;-61
2021/12/01 19:20:40;;;;;;;11.63;1.80;;;;;;;;;;5120871;28;20100;-62
2021/12/01 19:23:06;;;;;;;6.57;1.20;;;;;;;;;;5114794;28;20095;-61
2021/12/01 19:25:32;;;;;;;4.47;1.90;;;;;;;;;;5115051;28;20051;-62
2021/12/01 19:27:58;;;;;;;9.50;1.43;;;;;;;;;;5114431;28;20040;-61
2021/12/01 19:30:25;;;;;;;9.00;1.60;;;;;;;;;;5118594;28;20580;-61
2021/12/01 19:32:52;;;;;;;7.97;1.63;;;;;;;;;;5117040;28;20092;-61
2021/12/01 19:35:20;;;;;;;13.07;1.60;;;;;;;;;;5116467;28;20055;-61
2021/12/01 19:37:47;;;;;;;16.40;1.80;;;;;;;;;;5114555;28;20048;-61
2021/12/01 19:40:15;;;;;;;15.37;2.30;;;;;;;;;;5111230;28;20096;-61
2021/12/01 19:42:41;;;;;;;7.93;1.30;;;;;;;;;;5093375;28;20032;-61
2021/12/01 19:45:08;;;;;;;12.47;2.33;;;;;;;;;;5092108;28;20062;-61
2021/12/01 19:47:35;;;;;;;6.87;1.13;;;;;;;;;;5093181;28;20052;-61
2021/12/01 19:50:01;;;;;;;6.23;1.50;;;;;;;;;;5092990;28;20540;-60
2021/12/01 19:52:27;;;;;;;8.80;1.20;;;;;;;;;;5095904;28;20412;-61
2021/12/01 19:54:53;;;;;;;9.47;1.03;;;;;;;;;;5094575;28;20040;-61
2021/12/01 19:57:20;;;;;;;6.47;0.90;;;;;;;;;;5094714;28;20685;-61
2021/12/01 19:59:46;;;;;;;8.67;1.37;;;;;;;;;;5094500;28;20649;-61
2021/12/01 20:02:13;;;;;;;6.37;1.20;;;;;;;;;;5091085;28;20219;-61
2021/12/01 20:04:39;;;;;;;3.93;1.07;;;;;;;;;;5093530;28;20047;-61
2021/12/01 20:07:06;;;;;;;6.93;1.40;;;;;;;;;;5095796;28;20071;-61
2021/12/01 20:09:35;;;;;;;3.57;0.90;;;;;;;;;;5096630;28;20044;-61
2021/12/01 20:12:02;;;;;;;4.40;0.90;;;;;;;;;;5094668;28;20052;-62
2021/12/01 20:14:28;;;;;;;5.60;0.80;;;;;;;;;;5095178;28;20048;-61
2021/12/01 20:16:55;;;;;;;4.00;0.83;;;;;;;;;;5093796;28;20066;-61
2021/12/01 20:19:22;;;;;;;6.73;1.17;;;;;;;;;;5091297;28;20557;-61
2021/12/01 20:21:48;;;;;;;4.47;0.73;;;;;;;;;;5091446;28;20816;-63
2021/12/01 20:24:14;;;;;;;6.63;1.40;;;;;;;;;;5094808;28;20748;-62
2021/12/01 20:26:42;;;;;;;11.37;2.27;;;;;;;;;;5085835;28;20459;-62
2021/12/01 20:29:10;;;;;;;7.40;1.57;;;;;;;;;;5079763;28;20055;-62
2021/12/01 20:31:37;;;;;;;8.27;1.30;;;;;;;;;;5080914;28;20737;-62
2021/12/01 20:34:09;;;;;;;9.73;1.10;;;;;;;;;;5065172;28;20121;-62
2021/12/01 20:36:35;;;;;;;8.20;1.03;;;;;;;;;;5079053;28;20115;-62
2021/12/01 20:39:04;;;;;;;11.80;1.20;;;;;;;;;;5082756;28;20118;-62
2021/12/01 20:41:32;;;;;;;4.53;1.40;;;;;;;;;;5081719;28;20174;-62
2021/12/01 20:43:59;;;;;;;7.40;1.17;;;;;;;;;;5083640;28;20059;-62
2021/12/01 20:46:41;;;;;;;5.53;1.33;;;;;;;;;;5080296;28;20281;-62
2021/12/01 20:54:42;;;;;;;10.13;1.00;;;;;;;;;;5079877;28;20041;-62
2021/12/01 20:57:30;;;;;;;9.57;1.60;;;;;;;;;;5082629;28;20036;-62
2021/12/01 21:01:23;;;;;;;8.90;1.20;;;;;;;;;;5080880;28;20438;-62
2021/12/01 21:03:03;;;;;;;7.10;1.10;;;;;;;;;;5075289;28;20040;-62
2021/12/01 21:05:30;;;;;;;14.38;3.05;;;;;;;;;;5081149;28;20094;-62
2021/12/01 21:07:56;;;;;;;5.83;1.00;;;;;;;;;;5077305;28;20053;-62
2021/12/01 21:10:23;;;;;;;6.17;1.10;;;;;;;;;;5078139;28;20040;-62
2021/12/01 21:12:50;;;;;;;10.80;1.67;;;;;;;;;;5081502;28;20463;-62
2021/12/01 21:15:17;;;;;;;10.73;1.30;;;;;;;;;;5075403;28;20064;-61
2021/12/01 21:17:43;;;;;;;9.37;1.47;;;;;;;;;;5079536;28;20047;-62
2021/12/01 21:20:10;;;;;;;5.90;1.10;;;;;;;;;;5076973;28;20443;-62
2021/12/01 21:22:36;;;;;;;6.20;1.33;;;;;;;;;;5081853;28;20047;-62
2021/12/01 21:25:03;;;;;;;11.77;1.30;;;;;;;;;;5077535;28;20045;-62
2021/12/01 21:27:30;;;;;;;11.37;2.07;;;;;;;;;;5082188;28;20068;-61
2021/12/01 21:30:00;;;;;;;10.47;1.43;;;;;;;;;;5082261;28;20393;-62
2021/12/01 21:32:27;;;;;;;9.87;1.47;;;;;;;;;;5081897;28;20050;-62
2021/12/01 21:34:54;;;;;;;11.10;1.97;;;;;;;;;;5084109;28;20129;-62
2021/12/01 21:37:21;;;;;;;11.77;1.40;;;;;;;;;;5080034;28;20621;-62
2021/12/01 21:39:49;;;;;;;13.30;1.63;;;;;;;;;;5081505;28;20089;-62
2021/12/01 21:42:15;;;;;;;13.70;2.67;;;;;;;;;;5075643;28;20042;-62
2021/12/01 21:44:42;;;;;;;8.43;3.17;;;;;;;;;;5078594;28;20074;-62
2021/12/01 21:47:11;;;;;;;11.77;1.70;;;;;;;;;;5073690;28;20048;-61
2021/12/01 21:49:37;;;;;;;10.90;1.80;;;;;;;;;;5078398;28;20048;-62
2021/12/01 21:52:05;;;;;;;12.20;3.10;;;;;;;;;;5081608;28;20500;-61
2021/12/01 21:54:32;;;;;;;16.00;2.57;;;;;;;;;;5073663;28;20045;-62
2021/12/01 21:56:59;;;;;;;14.37;2.27;;;;;;;;;;5079132;28;20054;-62
2021/12/01 21:59:27;;;;;;;11.40;1.67;;;;;;;;;;5075097;28;20052;-62
2021/12/01 22:01:54;;;;;;;14.30;2.53;;;;;;;;;;5082023;28;20044;-62
2021/12/01 22:04:21;;;;;;;8.50;1.80;;;;;;;;;;5080498;28;20051;-62
2021/12/01 22:06:47;;;;;;;17.87;2.30;;;;;;;;;;5080367;28;20079;-61
2021/12/01 22:09:14;;;;;;;7.13;1.63;;;;;;;;;;5059352;28;20063;-62
2021/12/01 22:11:41;;;;;;;8.70;1.40;;;;;;;;;;5083635;28;20044;-62
2021/12/01 22:14:07;;;;;;;8.63;1.40;;;;;;;;;;5089562;28;20095;-62
2021/12/01 22:16:34;;;;;;;8.80;1.63;;;;;;;;;;5087081;28;20044;-61
2021/12/01 22:19:00;;;;;;;8.30;1.47;;;;;;;;;;5087928;28;20047;-62
2021/12/01 22:21:33;;;;;;;11.40;1.80;;;;;;;;;;5087903;28;20044;-62
2021/12/01 22:23:59;;;;;;;;;;;;;;;;;;5087101;28;20506;-62
2021/12/01 22:26:31;;;;;;;16.90;2.73;;;;;;;;;;5089796;28;19993;-62
2021/12/01 22:28:57;;;;;;;12.70;1.77;;;;;;;;;;5089185;28;20409;-62
2021/12/01 22:31:23;;;;;;;11.90;1.70;;;;;;;;;;5086961;28;20054;-62
2021/12/01 22:33:50;;;;;;;8.23;1.40;;;;;;;;;;5085430;28;20044;-62
2021/12/01 22:36:18;;;;;;;9.27;1.70;;;;;;;;;;5086418;28;20413;-62
2021/12/01 22:38:45;;;;;;;6.53;1.30;;;;;;;;;;5086856;28;20048;-62
2021/12/01 22:41:11;;;;;;;6.67;1.60;;;;;;;;;;5088949;28;20047;-62
2021/12/01 22:43:40;;;;;;;7.10;1.50;;;;;;;;;;5088353;28;20044;-62
2021/12/01 22:46:06;;;;;;;8.80;1.63;;;;;;;;;;5086546;28;20060;-62
2021/12/01 22:48:36;;;;;;;8.53;2.53;;;;;;;;;;5086606;28;20173;-62
2021/12/01 22:51:03;;;;;;;12.17;1.77;;;;;;;;;;5088022;28;20177;-61
2021/12/01 22:53:29;;;;;;;7.30;1.83;;;;;;;;;;5089081;28;20044;-61
2021/12/01 22:56:02;;;;;;;10.37;1.60;;;;;;;;;;5086137;28;20044;-61
2021/12/01 22:58:38;;;;;;;8.50;1.38;;;;;;;;;;5068631;28;20095;-62
2021/12/01 23:01:08;;;;;;;13.87;1.87;;;;;;;;;;5082522;28;20036;-62
2021/12/01 23:03:37;;;;;;;11.90;1.50;;;;;;;;;;5087528;28;20052;-61
2021/12/01 23:06:03;;;;;;;7.27;1.50;;;;;;;;;;5087725;28;20163;-62
2021/12/01 23:08:30;;;;;;;8.83;1.60;;;;;;;;;;5088683;28;20067;-62
2021/12/01 23:10:57;;;;;;;15.13;1.77;;;;;;;;;;5069829;28;20036;-61
2021/12/01 23:13:24;;;;;;;10.63;1.40;;;;;;;;;;5075188;28;20040;-61
2021/12/01 23:15:50;;;;;;;11.27;1.70;;;;;;;;;;5076548;28;20689;-61
2021/12/01 23:18:16;;;;;;;10.70;1.50;;;;;;;;;;5081519;28;20047;-62
2021/12/01 23:20:44;;;;;;;15.47;2.33;;;;;;;;;;5061943;28;20055;-62
2021/12/01 23:28:23;;;;;;;7.80;1.50;;;;;;;;;;5086452;28;20048;-61
2021/12/01 23:30:49;;;;;;;10.23;1.77;;;;;;;;;;5077415;28;20052;-62
2021/12/01 23:33:32;;;;;;;13.93;3.63;;;;;;;;;;5076431;28;20423;-62
2021/12/01 23:35:58;;;;;;;14.30;1.70;;;;;;;;;;5086963;28;20472;-62
2021/12/01 23:38:24;;;;;;;7.70;1.43;;;;;;;;;;5088368;28;20040;-62
2021/12/01 23:40:50;;;;;;;7.53;1.30;;;;;;;;;;5085415;28;20047;-62
2021/12/01 23:43:16;;;;;;;20.33;3.00;;;;;;;;;;5084994;28;20274;-61
2021/12/01 23:51:21;;;;;;;14.07;1.87;;;;;;;;;;5078593;28;20322;-62
2021/12/01 23:53:48;;;;;;;7.63;1.50;;;;;;;;;;5085338;28;20326;-62
2021/12/01 23:56:14;;;;;;;14.23;2.00;;;;;;;;;;5088092;28;20639;-62
2021/12/01 23:58:41;;;;;;;11.83;1.60;;;;;;;;;;5086575;28;20373;-61
